Donovan, Illinois
Current Conditions -  °F | °C
As of 1:35 AM on Thursday 25 Dec 2014 (Local Time) from KIKK Reporting Station
Overcast Overcast  
Wind Chill: 27°   Ceiling: 1800
Heat Index: 36°   Visibility: 10mi
Dew Point: 33°   Wind: 14mph
Humidity: 91%   Direction: 250°WSW
Pressure: 29.76"   Gusts: 18mph
Location:  40.88°N, 87.62°W
Report Text: KIKK 250735Z AUTO 25012G16KT 10SM OVC018 02/01 A2976 RMK AO2 T00220008
Loading
Personal Weather Stations






























Interactive Weather Map New forecast layout! Learn more

10-Day Weather Forecast

Advertisements
Track Severe Weather on mobile